sensor_id;sensor_type;location;lat;lon;timestamp;temperature;humidity
37232;DHT22;23125;48.156;15.954;2023-03-01T00:01:15;2.20;49.80
37232;DHT22;23125;48.156;15.954;2023-03-01T00:03:42;2.20;49.90
37232;DHT22;23125;48.156;15.954;2023-03-01T00:06:08;2.20;50.00
37232;DHT22;23125;48.156;15.954;2023-03-01T00:08:35;2.10;50.00
37232;DHT22;23125;48.156;15.954;2023-03-01T00:11:10;2.10;50.10
37232;DHT22;23125;48.156;15.954;2023-03-01T00:13:37;2.10;50.10
37232;DHT22;23125;48.156;15.954;2023-03-01T00:16:06;2.10;50.10
37232;DHT22;23125;48.156;15.954;2023-03-01T00:18:33;2.10;50.10
37232;DHT22;23125;48.156;15.954;2023-03-01T00:20:59;2.10;50.20
37232;DHT22;23125;48.156;15.954;2023-03-01T00:23:25;2.00;50.20
37232;DHT22;23125;48.156;15.954;2023-03-01T00:25:52;2.00;50.20
37232;DHT22;23125;48.156;15.954;2023-03-01T00:28:19;2.00;50.20
37232;DHT22;23125;48.156;15.954;2023-03-01T00:30:46;2.00;50.30
37232;DHT22;23125;48.156;15.954;2023-03-01T00:33:12;2.00;50.20
37232;DHT22;23125;48.156;15.954;2023-03-01T00:35:38;2.00;50.30
37232;DHT22;23125;48.156;15.954;2023-03-01T00:38:04;1.90;50.30
37232;DHT22;23125;48.156;15.954;2023-03-01T00:40:33;1.90;50.90
37232;DHT22;23125;48.156;15.954;2023-03-01T00:42:59;1.90;50.40
37232;DHT22;23125;48.156;15.954;2023-03-01T00:45:25;1.90;50.40
37232;DHT22;23125;48.156;15.954;2023-03-01T00:47:51;1.90;50.50
37232;DHT22;23125;48.156;15.954;2023-03-01T00:50:18;1.80;50.40
37232;DHT22;23125;48.156;15.954;2023-03-01T00:52:44;1.80;50.50
37232;DHT22;23125;48.156;15.954;2023-03-01T00:55:10;1.80;50.50
37232;DHT22;23125;48.156;15.954;2023-03-01T00:57:36;1.80;50.60
37232;DHT22;23125;48.156;15.954;2023-03-01T01:00:04;1.80;50.60
37232;DHT22;23125;48.156;15.954;2023-03-01T01:02:33;1.80;50.60
37232;DHT22;23125;48.156;15.954;2023-03-01T01:04:59;1.80;50.60
37232;DHT22;23125;48.156;15.954;2023-03-01T01:07:25;1.70;50.60
37232;DHT22;23125;48.156;15.954;2023-03-01T01:09:51;1.70;50.70
37232;DHT22;23125;48.156;15.954;2023-03-01T01:12:17;1.70;50.70
37232;DHT22;23125;48.156;15.954;2023-03-01T01:14:42;1.70;50.80
37232;DHT22;23125;48.156;15.954;2023-03-01T01:17:08;1.70;50.80
37232;DHT22;23125;48.156;15.954;2023-03-01T01:19:34;1.60;50.70
37232;DHT22;23125;48.156;15.954;2023-03-01T01:22:00;1.60;50.80
37232;DHT22;23125;48.156;15.954;2023-03-01T01:24:26;1.60;50.80
37232;DHT22;23125;48.156;15.954;2023-03-01T01:26:52;1.60;50.80
37232;DHT22;23125;48.156;15.954;2023-03-01T01:29:18;1.60;50.90
37232;DHT22;23125;48.156;15.954;2023-03-01T01:31:44;1.60;50.90
37232;DHT22;23125;48.156;15.954;2023-03-01T01:34:15;1.60;50.90
37232;DHT22;23125;48.156;15.954;2023-03-01T01:36:41;1.50;50.90
37232;DHT22;23125;48.156;15.954;2023-03-01T01:39:07;1.50;51.00
37232;DHT22;23125;48.156;15.954;2023-03-01T01:41:40;1.50;51.00
37232;DHT22;23125;48.156;15.954;2023-03-01T01:44:20;1.50;51.00
37232;DHT22;23125;48.156;15.954;2023-03-01T01:49:36;1.50;51.20
37232;DHT22;23125;48.156;15.954;2023-03-01T01:52:07;1.50;51.30
37232;DHT22;23125;48.156;15.954;2023-03-01T01:57:45;1.50;51.50
37232;DHT22;23125;48.156;15.954;2023-03-01T02:00:16;1.50;51.70
37232;DHT22;23125;48.156;15.954;2023-03-01T02:02:43;1.50;51.80
37232;DHT22;23125;48.156;15.954;2023-03-01T02:05:20;1.50;51.90
37232;DHT22;23125;48.156;15.954;2023-03-01T02:07:48;1.60;52.10
37232;DHT22;23125;48.156;15.954;2023-03-01T02:10:15;1.60;52.10
37232;DHT22;23125;48.156;15.954;2023-03-01T02:12:42;1.70;52.20
37232;DHT22;23125;48.156;15.954;2023-03-01T02:15:08;1.70;52.20
37232;DHT22;23125;48.156;15.954;2023-03-01T02:17:34;1.80;52.30
37232;DHT22;23125;48.156;15.954;2023-03-01T02:20:10;1.80;52.40
37232;DHT22;23125;48.156;15.954;2023-03-01T02:22:39;1.90;52.50
37232;DHT22;23125;48.156;15.954;2023-03-01T02:30:24;2.00;52.60
37232;DHT22;23125;48.156;15.954;2023-03-01T02:32:52;2.00;52.60
37232;DHT22;23125;48.156;15.954;2023-03-01T02:35:20;2.10;52.60
37232;DHT22;23125;48.156;15.954;2023-03-01T02:37:48;2.10;52.70
37232;DHT22;23125;48.156;15.954;2023-03-01T02:40:17;2.20;52.70
37232;DHT22;23125;48.156;15.954;2023-03-01T02:42:53;2.20;52.80
37232;DHT22;23125;48.156;15.954;2023-03-01T02:45:20;2.30;52.80
37232;DHT22;23125;48.156;15.954;2023-03-01T02:47:47;2.30;52.80
37232;DHT22;23125;48.156;15.954;2023-03-01T02:53:27;2.40;52.90
37232;DHT22;23125;48.156;15.954;2023-03-01T02:55:55;2.50;52.90
37232;DHT22;23125;48.156;15.954;2023-03-01T02:58:21;2.50;52.90
37232;DHT22;23125;48.156;15.954;2023-03-01T03:00:47;2.50;52.90
37232;DHT22;23125;48.156;15.954;2023-03-01T03:03:16;2.60;53.00
37232;DHT22;23125;48.156;15.954;2023-03-01T03:05:42;2.60;53.00
37232;DHT22;23125;48.156;15.954;2023-03-01T03:08:09;2.60;53.00
37232;DHT22;23125;48.156;15.954;2023-03-01T03:10:38;2.70;53.00
37232;DHT22;23125;48.156;15.954;2023-03-01T03:13:08;2.70;53.00
37232;DHT22;23125;48.156;15.954;2023-03-01T03:15:34;2.70;53.00
37232;DHT22;23125;48.156;15.954;2023-03-01T03:18:07;2.80;53.10
37232;DHT22;23125;48.156;15.954;2023-03-01T03:20:34;2.80;53.10
37232;DHT22;23125;48.156;15.954;2023-03-01T03:23:00;2.80;53.10
37232;DHT22;23125;48.156;15.954;2023-03-01T03:25:27;2.90;53.20
37232;DHT22;23125;48.156;15.954;2023-03-01T03:27:54;2.90;53.20
37232;DHT22;23125;48.156;15.954;2023-03-01T03:30:24;2.90;53.20
37232;DHT22;23125;48.156;15.954;2023-03-01T03:32:50;3.00;53.30
37232;DHT22;23125;48.156;15.954;2023-03-01T03:35:28;3.00;53.20
37232;DHT22;23125;48.156;15.954;2023-03-01T03:37:56;3.00;53.30
37232;DHT22;23125;48.156;15.954;2023-03-01T03:42:59;3.10;53.30
37232;DHT22;23125;48.156;15.954;2023-03-01T03:45:25;3.10;53.30
37232;DHT22;23125;48.156;15.954;2023-03-01T03:47:51;3.20;53.40
37232;DHT22;23125;48.156;15.954;2023-03-01T03:50:18;3.20;53.40
37232;DHT22;23125;48.156;15.954;2023-03-01T03:52:44;3.20;53.40
37232;DHT22;23125;48.156;15.954;2023-03-01T03:55:12;3.30;53.50
37232;DHT22;23125;48.156;15.954;2023-03-01T03:57:39;3.30;53.50
37232;DHT22;23125;48.156;15.954;2023-03-01T04:00:08;3.30;53.40
37232;DHT22;23125;48.156;15.954;2023-03-01T04:02:44;3.30;53.50
37232;DHT22;23125;48.156;15.954;2023-03-01T04:05:12;3.30;53.50
37232;DHT22;23125;48.156;15.954;2023-03-01T04:07:38;3.30;53.50
37232;DHT22;23125;48.156;15.954;2023-03-01T04:10:07;3.40;53.50
37232;DHT22;23125;48.156;15.954;2023-03-01T04:12:35;3.40;53.50
37232;DHT22;23125;48.156;15.954;2023-03-01T04:15:06;3.40;53.50
37232;DHT22;23125;48.156;15.954;2023-03-01T04:17:43;3.40;53.50
37232;DHT22;23125;48.156;15.954;2023-03-01T04:20:12;3.50;53.60
37232;DHT22;23125;48.156;15.954;2023-03-01T04:22:39;3.50;53.60
37232;DHT22;23125;48.156;15.954;2023-03-01T04:25:06;3.50;53.60
37232;DHT22;23125;48.156;15.954;2023-03-01T04:27:36;3.60;53.60
37232;DHT22;23125;48.156;15.954;2023-03-01T04:30:04;3.50;53.50
37232;DHT22;23125;48.156;15.954;2023-03-01T04:32:30;3.50;53.60
37232;DHT22;23125;48.156;15.954;2023-03-01T04:34:57;3.60;53.60
37232;DHT22;23125;48.156;15.954;2023-03-01T04:37:23;3.60;53.60
37232;DHT22;23125;48.156;15.954;2023-03-01T04:39:49;3.60;53.60
37232;DHT22;23125;48.156;15.954;2023-03-01T04:42:15;3.60;53.60
37232;DHT22;23125;48.156;15.954;2023-03-01T04:44:43;3.60;53.70
37232;DHT22;23125;48.156;15.954;2023-03-01T04:47:09;3.70;53.70
37232;DHT22;23125;48.156;15.954;2023-03-01T04:49:35;3.60;53.60
37232;DHT22;23125;48.156;15.954;2023-03-01T04:52:01;3.70;53.70
37232;DHT22;23125;48.156;15.954;2023-03-01T04:54:31;3.70;53.70
37232;DHT22;23125;48.156;15.954;2023-03-01T04:56:58;3.70;53.80
37232;DHT22;23125;48.156;15.954;2023-03-01T04:59:25;3.70;53.80
37232;DHT22;23125;48.156;15.954;2023-03-01T05:01:52;3.70;53.80
37232;DHT22;23125;48.156;15.954;2023-03-01T05:04:22;3.70;53.80
37232;DHT22;23125;48.156;15.954;2023-03-01T05:06:48;3.80;53.80
37232;DHT22;23125;48.156;15.954;2023-03-01T05:09:14;3.80;53.80
37232;DHT22;23125;48.156;15.954;2023-03-01T05:11:40;3.80;53.80
37232;DHT22;23125;48.156;15.954;2023-03-01T05:14:07;3.80;53.80
37232;DHT22;23125;48.156;15.954;2023-03-01T05:16:35;3.80;53.80
37232;DHT22;23125;48.156;15.954;2023-03-01T05:19:03;3.90;53.90
37232;DHT22;23125;48.156;15.954;2023-03-01T05:21:44;3.80;53.80
37232;DHT22;23125;48.156;15.954;2023-03-01T05:24:29;3.80;54.40
37232;DHT22;23125;48.156;15.954;2023-03-01T05:26:55;3.90;53.90
37232;DHT22;23125;48.156;15.954;2023-03-01T05:29:23;3.90;53.90
37232;DHT22;23125;48.156;15.954;2023-03-01T05:31:53;3.90;54.00
37232;DHT22;23125;48.156;15.954;2023-03-01T05:34:30;3.90;54.00
37232;DHT22;23125;48.156;15.954;2023-03-01T05:36:57;3.90;54.00
37232;DHT22;23125;48.156;15.954;2023-03-01T05:39:25;3.90;54.00
37232;DHT22;23125;48.156;15.954;2023-03-01T05:41:56;3.90;54.00
37232;DHT22;23125;48.156;15.954;2023-03-01T05:44:24;3.90;54.00
37232;DHT22;23125;48.156;15.954;2023-03-01T05:46:51;3.90;53.90
37232;DHT22;23125;48.156;15.954;2023-03-01T05:49:17;3.90;54.00
37232;DHT22;23125;48.156;15.954;2023-03-01T05:51:48;3.90;54.60
37232;DHT22;23125;48.156;15.954;2023-03-01T05:54:15;3.90;54.10
37232;DHT22;23125;48.156;15.954;2023-03-01T05:56:41;4.00;54.10
37232;DHT22;23125;48.156;15.954;2023-03-01T05:59:07;4.00;54.10
37232;DHT22;23125;48.156;15.954;2023-03-01T06:01:34;4.00;54.20
37232;DHT22;23125;48.156;15.954;2023-03-01T06:04:01;4.00;54.20
37232;DHT22;23125;48.156;15.954;2023-03-01T06:06:27;4.10;54.20
37232;DHT22;23125;48.156;15.954;2023-03-01T06:08:54;4.10;54.20
37232;DHT22;23125;48.156;15.954;2023-03-01T06:11:20;4.10;54.30
37232;DHT22;23125;48.156;15.954;2023-03-01T06:13:47;4.10;54.30
37232;DHT22;23125;48.156;15.954;2023-03-01T06:16:14;4.10;54.30
37232;DHT22;23125;48.156;15.954;2023-03-01T06:18:40;4.10;54.30
37232;DHT22;23125;48.156;15.954;2023-03-01T06:21:07;4.20;54.30
37232;DHT22;23125;48.156;15.954;2023-03-01T06:23:34;4.20;54.40
37232;DHT22;23125;48.156;15.954;2023-03-01T06:26:00;4.20;54.50
37232;DHT22;23125;48.156;15.954;2023-03-01T06:28:30;4.30;54.60
37232;DHT22;23125;48.156;15.954;2023-03-01T06:30:56;4.30;54.70
37232;DHT22;23125;48.156;15.954;2023-03-01T06:33:21;4.40;54.90
37232;DHT22;23125;48.156;15.954;2023-03-01T06:35:49;4.40;54.90
37232;DHT22;23125;48.156;15.954;2023-03-01T06:38:16;4.50;54.90
37232;DHT22;23125;48.156;15.954;2023-03-01T06:40:45;4.50;54.90
37232;DHT22;23125;48.156;15.954;2023-03-01T06:43:17;4.60;55.00
37232;DHT22;23125;48.156;15.954;2023-03-01T06:45:42;4.60;55.00
37232;DHT22;23125;48.156;15.954;2023-03-01T06:48:08;4.70;55.00
37232;DHT22;23125;48.156;15.954;2023-03-01T06:50:35;4.70;55.00
37232;DHT22;23125;48.156;15.954;2023-03-01T06:53:02;4.80;55.10
37232;DHT22;23125;48.156;15.954;2023-03-01T06:55:28;4.80;55.10
37232;DHT22;23125;48.156;15.954;2023-03-01T06:57:56;4.90;55.10
37232;DHT22;23125;48.156;15.954;2023-03-01T07:00:23;5.00;55.20
37232;DHT22;23125;48.156;15.954;2023-03-01T07:02:50;5.00;55.20
37232;DHT22;23125;48.156;15.954;2023-03-01T07:05:16;5.10;55.20
37232;DHT22;23125;48.156;15.954;2023-03-01T07:07:41;5.10;55.20
37232;DHT22;23125;48.156;15.954;2023-03-01T07:10:09;5.20;55.20
37232;DHT22;23125;48.156;15.954;2023-03-01T07:12:35;5.20;55.20
37232;DHT22;23125;48.156;15.954;2023-03-01T07:15:00;5.30;55.20
37232;DHT22;23125;48.156;15.954;2023-03-01T07:17:26;5.30;55.10
37232;DHT22;23125;48.156;15.954;2023-03-01T07:19:52;5.40;55.10
37232;DHT22;23125;48.156;15.954;2023-03-01T07:22:18;5.40;55.20
37232;DHT22;23125;48.156;15.954;2023-03-01T07:24:44;5.50;55.30
37232;DHT22;23125;48.156;15.954;2023-03-01T07:27:10;5.50;55.30
37232;DHT22;23125;48.156;15.954;2023-03-01T07:29:36;5.60;55.30
37232;DHT22;23125;48.156;15.954;2023-03-01T07:32:03;5.60;55.40
37232;DHT22;23125;48.156;15.954;2023-03-01T07:34:29;5.70;55.50
37232;DHT22;23125;48.156;15.954;2023-03-01T07:36:55;5.70;55.40
37232;DHT22;23125;48.156;15.954;2023-03-01T07:39:21;5.80;55.40
37232;DHT22;23125;48.156;15.954;2023-03-01T07:41:49;5.90;55.50
37232;DHT22;23125;48.156;15.954;2023-03-01T07:44:15;6.00;55.50
37232;DHT22;23125;48.156;15.954;2023-03-01T07:46:43;6.00;55.40
37232;DHT22;23125;48.156;15.954;2023-03-01T07:49:10;6.10;55.50
37232;DHT22;23125;48.156;15.954;2023-03-01T07:51:36;6.10;55.40
37232;DHT22;23125;48.156;15.954;2023-03-01T07:54:02;6.20;55.50
37232;DHT22;23125;48.156;15.954;2023-03-01T07:56:28;6.30;55.60
37232;DHT22;23125;48.156;15.954;2023-03-01T07:58:54;6.40;55.90
37232;DHT22;23125;48.156;15.954;2023-03-01T08:01:21;6.60;56.20
37232;DHT22;23125;48.156;15.954;2023-03-01T08:03:47;6.70;56.50
37232;DHT22;23125;48.156;15.954;2023-03-01T08:06:15;6.80;56.40
37232;DHT22;23125;48.156;15.954;2023-03-01T08:08:43;7.00;56.30
37232;DHT22;23125;48.156;15.954;2023-03-01T08:11:11;7.10;56.20
37232;DHT22;23125;48.156;15.954;2023-03-01T08:13:38;7.20;56.30
37232;DHT22;23125;48.156;15.954;2023-03-01T08:16:13;7.40;56.40
37232;DHT22;23125;48.156;15.954;2023-03-01T08:18:40;7.50;56.50
37232;DHT22;23125;48.156;15.954;2023-03-01T08:21:12;7.70;56.50
37232;DHT22;23125;48.156;15.954;2023-03-01T08:23:38;7.90;56.20
37232;DHT22;23125;48.156;15.954;2023-03-01T08:26:06;8.00;56.10
37232;DHT22;23125;48.156;15.954;2023-03-01T08:28:32;8.10;56.10
37232;DHT22;23125;48.156;15.954;2023-03-01T08:30:58;8.30;56.30
37232;DHT22;23125;48.156;15.954;2023-03-01T08:33:24;8.40;56.40
37232;DHT22;23125;48.156;15.954;2023-03-01T08:35:50;8.60;56.40
37232;DHT22;23125;48.156;15.954;2023-03-01T08:38:15;8.80;56.20
37232;DHT22;23125;48.156;15.954;2023-03-01T08:40:41;8.90;56.00
37232;DHT22;23125;48.156;15.954;2023-03-01T08:43:07;9.10;56.00
37232;DHT22;23125;48.156;15.954;2023-03-01T08:45:33;9.20;55.40
37232;DHT22;23125;48.156;15.954;2023-03-01T08:47:59;9.30;55.40
37232;DHT22;23125;48.156;15.954;2023-03-01T08:50:24;9.30;54.50
37232;DHT22;23125;48.156;15.954;2023-03-01T08:52:51;9.40;54.50
37232;DHT22;23125;48.156;15.954;2023-03-01T08:55:17;9.40;54.10
37232;DHT22;23125;48.156;15.954;2023-03-01T08:57:43;9.50;53.90
37232;DHT22;23125;48.156;15.954;2023-03-01T09:00:11;9.50;53.90
37232;DHT22;23125;48.156;15.954;2023-03-01T09:02:37;9.60;53.90
37232;DHT22;23125;48.156;15.954;2023-03-01T09:05:04;9.70;54.10
37232;DHT22;23125;48.156;15.954;2023-03-01T09:07:30;9.90;54.70
37232;DHT22;23125;48.156;15.954;2023-03-01T09:09:56;10.10;54.40
37232;DHT22;23125;48.156;15.954;2023-03-01T09:12:22;10.20;53.40
37232;DHT22;23125;48.156;15.954;2023-03-01T09:14:48;10.40;54.60
37232;DHT22;23125;48.156;15.954;2023-03-01T09:17:13;10.70;55.10
37232;DHT22;23125;48.156;15.954;2023-03-01T09:19:39;11.10;55.80
37232;DHT22;23125;48.156;15.954;2023-03-01T09:22:05;11.40;54.60
37232;DHT22;23125;48.156;15.954;2023-03-01T09:24:31;11.70;54.50
37232;DHT22;23125;48.156;15.954;2023-03-01T09:26:57;12.00;54.10
37232;DHT22;23125;48.156;15.954;2023-03-01T09:29:23;12.30;53.00
37232;DHT22;23125;48.156;15.954;2023-03-01T09:31:49;12.50;52.30
37232;DHT22;23125;48.156;15.954;2023-03-01T09:34:15;12.70;51.50
37232;DHT22;23125;48.156;15.954;2023-03-01T09:36:49;12.80;50.60
37232;DHT22;23125;48.156;15.954;2023-03-01T09:39:16;13.00;50.10
37232;DHT22;23125;48.156;15.954;2023-03-01T09:42:03;13.10;50.00
37232;DHT22;23125;48.156;15.954;2023-03-01T09:44:53;13.20;49.40
37232;DHT22;23125;48.156;15.954;2023-03-01T09:47:30;13.40;49.20
37232;DHT22;23125;48.156;15.954;2023-03-01T09:49:58;13.50;47.80
37232;DHT22;23125;48.156;15.954;2023-03-01T09:52:47;13.50;47.90
37232;DHT22;23125;48.156;15.954;2023-03-01T09:55:20;13.50;47.20
37232;DHT22;23125;48.156;15.954;2023-03-01T10:00:44;13.40;46.10
37232;DHT22;23125;48.156;15.954;2023-03-01T10:03:26;13.40;46.30
37232;DHT22;23125;48.156;15.954;2023-03-01T10:06:14;13.30;45.40
37232;DHT22;23125;48.156;15.954;2023-03-01T10:08:54;13.20;45.10
37232;DHT22;23125;48.156;15.954;2023-03-01T10:11:31;13.10;45.20
37232;DHT22;23125;48.156;15.954;2023-03-01T10:16:57;13.20;46.00
37232;DHT22;23125;48.156;15.954;2023-03-01T10:19:44;13.30;46.10
37232;DHT22;23125;48.156;15.954;2023-03-01T10:22:20;13.60;46.60
37232;DHT22;23125;48.156;15.954;2023-03-01T10:24:51;13.90;46.20
37232;DHT22;23125;48.156;15.954;2023-03-01T10:27:22;14.10;45.90
37232;DHT22;23125;48.156;15.954;2023-03-01T10:32:27;14.40;43.40
37232;DHT22;23125;48.156;15.954;2023-03-01T10:34:52;14.40;43.40
37232;DHT22;23125;48.156;15.954;2023-03-01T10:37:20;14.50;43.20
37232;DHT22;23125;48.156;15.954;2023-03-01T10:42:33;14.40;42.30
37232;DHT22;23125;48.156;15.954;2023-03-01T10:48:22;14.40;42.40
37232;DHT22;23125;48.156;15.954;2023-03-01T10:58:33;14.50;41.90
37232;DHT22;23125;48.156;15.954;2023-03-01T11:01:02;14.60;41.90
37232;DHT22;23125;48.156;15.954;2023-03-01T11:03:32;14.70;41.30
37232;DHT22;23125;48.156;15.954;2023-03-01T11:08:31;14.70;39.90
37232;DHT22;23125;48.156;15.954;2023-03-01T11:13:55;14.30;39.80
37232;DHT22;23125;48.156;15.954;2023-03-01T11:16:31;14.20;40.00
37232;DHT22;23125;48.156;15.954;2023-03-01T11:24:44;13.90;40.30
37232;DHT22;23125;48.156;15.954;2023-03-01T11:29:46;13.60;39.90
37232;DHT22;23125;48.156;15.954;2023-03-01T11:32:18;13.50;40.10
37232;DHT22;23125;48.156;15.954;2023-03-01T11:37:41;13.30;40.40
37232;DHT22;23125;48.156;15.954;2023-03-01T11:40:15;13.20;40.70
37232;DHT22;23125;48.156;15.954;2023-03-01T11:46:16;13.10;40.30
37232;DHT22;23125;48.156;15.954;2023-03-01T11:48:33;13.10;40.50
37232;DHT22;23125;48.156;15.954;2023-03-01T12:07:53;13.30;41.40
37232;DHT22;23125;48.156;15.954;2023-03-01T12:13:38;13.40;41.30
37232;DHT22;23125;48.156;15.954;2023-03-01T12:19:45;13.50;40.80
37232;DHT22;23125;48.156;15.954;2023-03-01T12:22:30;13.50;40.50
37232;DHT22;23125;48.156;15.954;2023-03-01T12:25:19;13.40;40.00
37232;DHT22;23125;48.156;15.954;2023-03-01T12:33:19;13.20;40.50
37232;DHT22;23125;48.156;15.954;2023-03-01T12:36:10;13.10;40.50
37232;DHT22;23125;48.156;15.954;2023-03-01T12:50:18;12.70;40.50
37232;DHT22;23125;48.156;15.954;2023-03-01T12:52:44;12.60;41.20
37232;DHT22;23125;48.156;15.954;2023-03-01T12:55:29;12.60;40.80
37232;DHT22;23125;48.156;15.954;2023-03-01T13:09:14;12.20;41.10
37232;DHT22;23125;48.156;15.954;2023-03-01T13:11:43;12.00;40.90
37232;DHT22;23125;48.156;15.954;2023-03-01T13:16:54;11.90;41.30
37232;DHT22;23125;48.156;15.954;2023-03-01T13:19:22;11.80;41.40
37232;DHT22;23125;48.156;15.954;2023-03-01T13:21:50;11.80;41.90
37232;DHT22;23125;48.156;15.954;2023-03-01T13:24:41;11.80;41.70
37232;DHT22;23125;48.156;15.954;2023-03-01T13:27:20;11.70;41.70
37232;DHT22;23125;48.156;15.954;2023-03-01T13:29:52;11.70;41.70
37232;DHT22;23125;48.156;15.954;2023-03-01T13:32:33;11.60;41.80
37232;DHT22;23125;48.156;15.954;2023-03-01T13:37:41;11.50;42.20
37232;DHT22;23125;48.156;15.954;2023-03-01T13:42:54;11.40;42.50
37232;DHT22;23125;48.156;15.954;2023-03-01T13:45:38;11.50;42.70
37232;DHT22;23125;48.156;15.954;2023-03-01T13:48:23;11.50;42.80
37232;DHT22;23125;48.156;15.954;2023-03-01T13:50:59;11.50;43.10
37232;DHT22;23125;48.156;15.954;2023-03-01T13:53:30;11.50;43.30
37232;DHT22;23125;48.156;15.954;2023-03-01T13:56:09;11.60;43.30
37232;DHT22;23125;48.156;15.954;2023-03-01T13:59:12;11.60;43.30
37232;DHT22;23125;48.156;15.954;2023-03-01T14:01:38;11.70;43.30
37232;DHT22;23125;48.156;15.954;2023-03-01T14:04:25;11.70;43.40
37232;DHT22;23125;48.156;15.954;2023-03-01T14:06:52;11.70;43.40
37232;DHT22;23125;48.156;15.954;2023-03-01T14:09:41;11.80;43.20
37232;DHT22;23125;48.156;15.954;2023-03-01T14:20:01;11.60;43.20
37232;DHT22;23125;48.156;15.954;2023-03-01T14:22:34;11.60;43.30
37232;DHT22;23125;48.156;15.954;2023-03-01T14:25:16;11.60;43.30
37232;DHT22;23125;48.156;15.954;2023-03-01T14:27:43;11.60;43.30
37232;DHT22;23125;48.156;15.954;2023-03-01T14:30:19;11.60;43.40
37232;DHT22;23125;48.156;15.954;2023-03-01T14:33:00;11.60;43.40
37232;DHT22;23125;48.156;15.954;2023-03-01T14:35:29;11.60;43.30
37232;DHT22;23125;48.156;15.954;2023-03-01T14:37:55;11.50;43.20
37232;DHT22;23125;48.156;15.954;2023-03-01T14:42:57;11.50;43.60
37232;DHT22;23125;48.156;15.954;2023-03-01T14:45:26;11.50;43.70
37232;DHT22;23125;48.156;15.954;2023-03-01T14:47:53;11.50;43.80
37232;DHT22;23125;48.156;15.954;2023-03-01T14:50:40;11.60;43.80
37232;DHT22;23125;48.156;15.954;2023-03-01T14:53:07;11.60;43.80
37232;DHT22;23125;48.156;15.954;2023-03-01T14:55:44;11.60;43.90
37232;DHT22;23125;48.156;15.954;2023-03-01T14:58:18;11.70;44.00
37232;DHT22;23125;48.156;15.954;2023-03-01T15:00:51;11.70;43.90
37232;DHT22;23125;48.156;15.954;2023-03-01T15:03:35;11.70;43.80
37232;DHT22;23125;48.156;15.954;2023-03-01T15:06:07;11.70;43.80
37232;DHT22;23125;48.156;15.954;2023-03-01T15:08:34;11.70;43.70
37232;DHT22;23125;48.156;15.954;2023-03-01T15:13:33;11.70;43.90
37232;DHT22;23125;48.156;15.954;2023-03-01T15:16:29;11.70;44.00
37232;DHT22;23125;48.156;15.954;2023-03-01T15:19:07;11.80;44.00
37232;DHT22;23125;48.156;15.954;2023-03-01T15:21:35;11.80;44.10
37232;DHT22;23125;48.156;15.954;2023-03-01T15:26:55;11.90;44.00
37232;DHT22;23125;48.156;15.954;2023-03-01T15:29:28;11.90;43.70
37232;DHT22;23125;48.156;15.954;2023-03-01T15:32:04;11.90;43.80
37232;DHT22;23125;48.156;15.954;2023-03-01T15:34:32;11.80;43.60
37232;DHT22;23125;48.156;15.954;2023-03-01T15:37:03;11.80;43.70
37232;DHT22;23125;48.156;15.954;2023-03-01T15:39:32;11.80;43.80
37232;DHT22;23125;48.156;15.954;2023-03-01T15:42:06;11.70;43.80
37232;DHT22;23125;48.156;15.954;2023-03-01T15:44:38;11.70;43.80
37232;DHT22;23125;48.156;15.954;2023-03-01T15:47:22;11.70;43.90
37232;DHT22;23125;48.156;15.954;2023-03-01T15:49:52;11.70;44.00
37232;DHT22;23125;48.156;15.954;2023-03-01T15:55:00;11.60;43.90
37232;DHT22;23125;48.156;15.954;2023-03-01T15:57:27;11.60;44.00
37232;DHT22;23125;48.156;15.954;2023-03-01T15:59:53;11.60;44.20
37232;DHT22;23125;48.156;15.954;2023-03-01T16:02:19;11.60;44.30
37232;DHT22;23125;48.156;15.954;2023-03-01T16:04:47;11.50;44.20
37232;DHT22;23125;48.156;15.954;2023-03-01T16:07:14;11.50;44.20
37232;DHT22;23125;48.156;15.954;2023-03-01T16:09:40;11.50;44.20
37232;DHT22;23125;48.156;15.954;2023-03-01T16:12:14;11.50;44.40
37232;DHT22;23125;48.156;15.954;2023-03-01T16:14:40;11.50;44.30
37232;DHT22;23125;48.156;15.954;2023-03-01T16:17:06;11.50;44.20
37232;DHT22;23125;48.156;15.954;2023-03-01T16:19:36;11.50;44.30
37232;DHT22;23125;48.156;15.954;2023-03-01T16:22:03;11.50;44.30
37232;DHT22;23125;48.156;15.954;2023-03-01T16:24:29;11.40;44.40
37232;DHT22;23125;48.156;15.954;2023-03-01T16:26:55;11.40;44.30
37232;DHT22;23125;48.156;15.954;2023-03-01T16:29:21;11.40;44.30
37232;DHT22;23125;48.156;15.954;2023-03-01T16:31:48;11.40;44.30
37232;DHT22;23125;48.156;15.954;2023-03-01T16:34:14;11.30;44.30
37232;DHT22;23125;48.156;15.954;2023-03-01T16:36:42;11.30;44.30
37232;DHT22;23125;48.156;15.954;2023-03-01T16:39:09;11.30;44.40
37232;DHT22;23125;48.156;15.954;2023-03-01T16:41:35;11.20;44.50
37232;DHT22;23125;48.156;15.954;2023-03-01T16:44:01;11.20;44.60
37232;DHT22;23125;48.156;15.954;2023-03-01T16:46:28;11.20;44.70
37232;DHT22;23125;48.156;15.954;2023-03-01T16:48:55;11.20;44.80
37232;DHT22;23125;48.156;15.954;2023-03-01T16:51:22;11.20;44.80
37232;DHT22;23125;48.156;15.954;2023-03-01T16:53:49;11.20;45.40
37232;DHT22;23125;48.156;15.954;2023-03-01T16:56:16;11.20;45.10
37232;DHT22;23125;48.156;15.954;2023-03-01T16:58:43;11.20;44.90
37232;DHT22;23125;48.156;15.954;2023-03-01T17:01:13;11.20;45.00
37232;DHT22;23125;48.156;15.954;2023-03-01T17:03:42;11.20;44.90
37232;DHT22;23125;48.156;15.954;2023-03-01T17:06:11;11.20;44.90
37232;DHT22;23125;48.156;15.954;2023-03-01T17:08:37;11.10;44.90
37232;DHT22;23125;48.156;15.954;2023-03-01T17:11:06;11.10;45.00
37232;DHT22;23125;48.156;15.954;2023-03-01T17:13:33;11.10;45.00
37232;DHT22;23125;48.156;15.954;2023-03-01T17:16:05;11.10;45.10
37232;DHT22;23125;48.156;15.954;2023-03-01T17:18:32;11.10;45.10
37232;DHT22;23125;48.156;15.954;2023-03-01T17:20:58;11.10;45.30
37232;DHT22;23125;48.156;15.954;2023-03-01T17:23:24;11.10;45.30
37232;DHT22;23125;48.156;15.954;2023-03-01T17:25:50;11.10;45.30
37232;DHT22;23125;48.156;15.954;2023-03-01T17:28:17;11.00;45.20
37232;DHT22;23125;48.156;15.954;2023-03-01T17:30:43;11.00;45.20
37232;DHT22;23125;48.156;15.954;2023-03-01T17:33:10;11.00;45.40
37232;DHT22;23125;48.156;15.954;2023-03-01T17:35:37;11.00;45.50
37232;DHT22;23125;48.156;15.954;2023-03-01T17:38:04;11.00;45.50
37232;DHT22;23125;48.156;15.954;2023-03-01T17:40:30;11.00;45.60
37232;DHT22;23125;48.156;15.954;2023-03-01T17:42:57;11.00;45.60
37232;DHT22;23125;48.156;15.954;2023-03-01T17:45:24;11.00;45.70
37232;DHT22;23125;48.156;15.954;2023-03-01T17:47:50;11.00;45.60
37232;DHT22;23125;48.156;15.954;2023-03-01T17:50:16;11.00;45.60
37232;DHT22;23125;48.156;15.954;2023-03-01T17:52:42;11.00;45.70
37232;DHT22;23125;48.156;15.954;2023-03-01T17:55:08;11.00;45.70